»·PEaware :: AAL438 KPHX-KSAN

AAL438 :: KPHX-KSAN

FLIGHT INFORMATION

Flight Status: Arrived
Operator:
American Airlines
More flights by this operator :: More flights under this callsign
Pilot: Jacob A. (30091)
Aircraft: BOEING 737-800
(B738)
More flights by this aircraft type
Origin: KPHX Phoenix Sky Harbor Intl
United States
Destination: KSAN San Diego Intl-Lindbergh
United States
More flights between these airports :: More routes between these airports
Route: FYRBD1 MOHAK J2 HOGGZ LUCKI1
File this flight plan on PilotEdge
Remarks:
Altitude:
(Current/Filed)
32,000ft
Speed:
(Current/Filed)
444kts
Departed: 25-Jul-20 10:05 AM
Arrived: 25-Jul-20 10:55 AM
Distance/Time
Traveled:
264nm/0:50
Distance/Time
To Go:
Arrived

Flight Plot

Page will automatically refresh every two minutes.


Map Options




Map Legend


Flown Route
Filed Route
Departure Airport
Arrival Airport
Navaid (VOR, NDB)
Fix

Horizontal Profiles

Position Reports

Time Latitude Longitude Heading Altitude Ground
Speed
25-Jul-20 09:28 33.823753 -116.506937 170 426ft 0kts
25-Jul-20 09:29 33.823753 -116.506937 170 426ft 0kts
25-Jul-20 09:30 33.823753 -116.506937 170 426ft 0kts
25-Jul-20 09:31 33.823753 -116.506937 170 426ft 0kts
25-Jul-20 09:32 33.433834 -112.010749 349 1130ft 0kts
25-Jul-20 09:33 33.433834 -112.010749 349 1130ft 0kts
25-Jul-20 09:34 33.433834 -112.010749 349 1130ft 0kts
25-Jul-20 09:35 33.433834 -112.010749 349 1130ft 0kts
25-Jul-20 09:36 33.433834 -112.010749 349 1130ft 0kts
25-Jul-20 09:37 33.433834 -112.010749 349 1130ft 0kts
25-Jul-20 09:38 33.433834 -112.010749 349 1130ft 0kts
25-Jul-20 09:39 33.433834 -112.010749 349 1130ft 0kts
25-Jul-20 09:40 33.433834 -112.010749 349 1130ft 0kts
25-Jul-20 09:41 33.433834 -112.010749 349 1130ft 0kts
25-Jul-20 09:42 33.433834 -112.010749 349 1130ft 0kts
25-Jul-20 09:43 33.433834 -112.010749 349 1130ft 0kts
25-Jul-20 09:44 33.433834 -112.010749 349 1130ft 0kts
25-Jul-20 09:45 33.433834 -112.010749 349 1130ft 0kts
25-Jul-20 09:46 33.433834 -112.010749 349 1130ft 0kts
25-Jul-20 09:47 33.433834 -112.010749 349 1130ft 0kts
25-Jul-20 09:48 33.433834 -112.010749 349 1130ft 0kts
25-Jul-20 09:49 33.433834 -112.010749 349 1130ft 0kts
25-Jul-20 09:50 33.433834 -112.010749 349 1130ft 0kts
25-Jul-20 09:51 33.433834 -112.010749 349 1130ft 0kts
25-Jul-20 09:52 33.433756 -112.010732 349 1130ft 1kts
25-Jul-20 09:53 33.433438 -112.010335 271 1129ft 0kts
25-Jul-20 09:54 33.433441 -112.010253 268 1130ft 0kts
25-Jul-20 09:55 33.433441 -112.010253 268 1130ft 0kts
25-Jul-20 09:56 33.433441 -112.010253 268 1130ft 0kts
25-Jul-20 09:57 33.433190 -112.010401 188 1129ft 4kts
25-Jul-20 09:58 33.432878 -112.013026 270 1128ft 16kts
25-Jul-20 09:59 33.432885 -112.017995 269 1124ft 16kts
25-Jul-20 10:00 33.432900 -112.023120 270 1121ft 14kts
25-Jul-20 10:01 33.432885 -112.026395 262 1119ft 1kts
25-Jul-20 10:02 33.432145 -112.026946 183 1119ft 5kts
25-Jul-20 10:03 33.431056 -112.024607 89 1120ft 31kts
25-Jul-20 10:04 33.431392 -111.984763 85 1932ft 180kts
25-Jul-20 10:05 33.434032 -111.912093 88 4267ft 243kts
25-Jul-20 10:06 33.402490 -111.846380 166 7582ft 256kts
25-Jul-20 10:07 33.352247 -111.891094 267 10589ft 264kts
25-Jul-20 10:08 33.356745 -111.985614 263 12055ft 332kts
25-Jul-20 10:09 33.315894 -112.092780 234 14111ft 368kts
25-Jul-20 10:10 33.254796 -112.192278 233 16774ft 376kts
25-Jul-20 10:11 33.192375 -112.293962 233 19120ft 386kts
25-Jul-20 10:12 33.129654 -112.399276 234 21301ft 395kts
25-Jul-20 10:13 33.066227 -112.507144 233 23243ft 404kts
25-Jul-20 10:14 32.999021 -112.615916 230 24981ft 413kts
25-Jul-20 10:15 32.952132 -112.741047 255 26554ft 426kts
25-Jul-20 10:16 32.929841 -112.880686 258 28032ft 435kts
25-Jul-20 10:17 32.909750 -113.023410 259 29380ft 442kts
25-Jul-20 10:18 32.889781 -113.168668 259 30787ft 445kts
25-Jul-20 10:19 32.869894 -113.313166 259 31937ft 446kts
25-Jul-20 10:20 32.849834 -113.457953 259 31936ft 441kts
25-Jul-20 10:21 32.829738 -113.601777 259 31935ft 442kts
25-Jul-20 10:22 32.809156 -113.745719 258 31935ft 442kts
25-Jul-20 10:23 32.788151 -113.889044 259 31936ft 441kts
25-Jul-20 10:24 32.777005 -114.034192 266 31936ft 441kts
25-Jul-20 10:25 32.779701 -114.178862 271 31930ft 439kts
25-Jul-20 10:26 32.786088 -114.323486 275 31925ft 440kts
25-Jul-20 10:27 32.812749 -114.464970 284 31926ft 441kts
25-Jul-20 10:28 32.848537 -114.604422 285 31926ft 440kts
25-Jul-20 10:29 32.873542 -114.745829 274 31926ft 436kts
25-Jul-20 10:30 32.875489 -114.888450 267 31927ft 433kts
25-Jul-20 10:31 32.872631 -115.030172 266 31923ft 428kts
25-Jul-20 10:32 32.869447 -115.171458 266 31891ft 428kts
25-Jul-20 10:33 32.865851 -115.314726 265 29034ft 427kts
25-Jul-20 10:34 32.849703 -115.448863 260 26200ft 401kts
25-Jul-20 10:35 32.830036 -115.577022 258 23580ft 396kts
25-Jul-20 10:36 32.809173 -115.703752 257 21590ft 387kts
25-Jul-20 10:37 32.788803 -115.827659 258 19831ft 380kts
25-Jul-20 10:38 32.777538 -115.952242 263 17988ft 370kts
25-Jul-20 10:39 32.768687 -116.069663 263 16501ft 344kts
25-Jul-20 10:40 32.760308 -116.180214 263 14653ft 333kts
25-Jul-20 10:41 32.752039 -116.288076 263 12985ft 322kts
25-Jul-20 10:42 32.744081 -116.389879 263 11474ft 297kts
25-Jul-20 10:43 32.737530 -116.484522 263 10174ft 277kts
25-Jul-20 10:44 32.730567 -116.573407 262 9083ft 270kts
25-Jul-20 10:45 32.721944 -116.662897 260 7550ft 277kts
25-Jul-20 10:46 32.713522 -116.749565 262 6469ft 244kts
25-Jul-20 10:47 32.704904 -116.826390 251 5743ft 234kts
25-Jul-20 10:48 32.682984 -116.897335 249 4577ft 220kts
25-Jul-20 10:49 32.677970 -116.962683 284 3750ft 189kts
25-Jul-20 10:50 32.691608 -117.016638 286 2856ft 155kts
25-Jul-20 10:51 32.703813 -117.066901 286 2159ft 159kts
25-Jul-20 10:52 32.715424 -117.115893 288 1198ft 148kts
25-Jul-20 10:53 32.727010 -117.163065 288 381ft 149kts
25-Jul-20 10:54 32.735991 -117.199569 284 27ft 37kts
25-Jul-20 10:55 32.735605 -117.202221 194 27ft 0kts
25-Jul-20 10:56 32.735234 -117.202238 160 27ft 5kts
25-Jul-20 10:57 32.734128 -117.201830 177 27ft 0kts

Navigation Log

Ident Type
Flight plan parsing failed, navigation log unavailable